sensor_id;sensor_type;location;lat;lon;timestamp;temperature;humidity
32173;DHT22;18679;45.190;5.722;2022-11-04T00:01:08;14.70;70.50
32173;DHT22;18679;45.190;5.722;2022-11-04T00:04:10;14.70;70.40
32173;DHT22;18679;45.190;5.722;2022-11-04T00:07:11;14.80;70.20
32173;DHT22;18679;45.190;5.722;2022-11-04T00:10:31;14.80;69.80
32173;DHT22;18679;45.190;5.722;2022-11-04T00:13:50;14.80;69.70
32173;DHT22;18679;45.190;5.722;2022-11-04T00:16:51;14.80;69.60
32173;DHT22;18679;45.190;5.722;2022-11-04T00:20:10;14.70;69.70
32173;DHT22;18679;45.190;5.722;2022-11-04T00:23:30;14.80;70.00
32173;DHT22;18679;45.190;5.722;2022-11-04T00:26:50;14.80;70.20
32173;DHT22;18679;45.190;5.722;2022-11-04T00:30:10;14.80;70.10
32173;DHT22;18679;45.190;5.722;2022-11-04T00:33:11;14.80;70.10
32173;DHT22;18679;45.190;5.722;2022-11-04T00:36:27;14.90;70.30
32173;DHT22;18679;45.190;5.722;2022-11-04T00:39:28;14.90;70.10
32173;DHT22;18679;45.190;5.722;2022-11-04T00:42:29;15.00;70.20
32173;DHT22;18679;45.190;5.722;2022-11-04T00:45:30;14.90;70.00
32173;DHT22;18679;45.190;5.722;2022-11-04T00:48:31;15.00;70.00
32173;DHT22;18679;45.190;5.722;2022-11-04T00:51:32;14.90;69.90
32173;DHT22;18679;45.190;5.722;2022-11-04T00:54:33;14.90;69.90
32173;DHT22;18679;45.190;5.722;2022-11-04T00:57:34;14.90;69.90
32173;DHT22;18679;45.190;5.722;2022-11-04T01:00:37;14.90;70.00
32173;DHT22;18679;45.190;5.722;2022-11-04T01:03:38;14.80;69.90
32173;DHT22;18679;45.190;5.722;2022-11-04T01:06:39;14.80;70.00
32173;DHT22;18679;45.190;5.722;2022-11-04T01:09:40;14.80;70.10
32173;DHT22;18679;45.190;5.722;2022-11-04T01:12:41;14.80;70.10
32173;DHT22;18679;45.190;5.722;2022-11-04T01:15:43;14.70;69.90
32173;DHT22;18679;45.190;5.722;2022-11-04T01:18:44;14.70;69.90
32173;DHT22;18679;45.190;5.722;2022-11-04T01:21:49;14.70;70.00
32173;DHT22;18679;45.190;5.722;2022-11-04T01:24:50;14.70;70.00
32173;DHT22;18679;45.190;5.722;2022-11-04T01:27:51;14.60;69.90
32173;DHT22;18679;45.190;5.722;2022-11-04T01:30:52;14.60;69.90
32173;DHT22;18679;45.190;5.722;2022-11-04T01:33:54;14.50;69.80
32173;DHT22;18679;45.190;5.722;2022-11-04T01:36:55;14.40;69.80
32173;DHT22;18679;45.190;5.722;2022-11-04T01:39:56;14.30;70.00
32173;DHT22;18679;45.190;5.722;2022-11-04T01:42:57;14.30;70.10
32173;DHT22;18679;45.190;5.722;2022-11-04T01:46:00;14.20;70.20
32173;DHT22;18679;45.190;5.722;2022-11-04T01:52:50;14.20;70.30
32173;DHT22;18679;45.190;5.722;2022-11-04T01:55:55;14.10;70.10
32173;DHT22;18679;45.190;5.722;2022-11-04T01:59:01;14.00;70.00
32173;DHT22;18679;45.190;5.722;2022-11-04T02:02:03;14.00;70.20
32173;DHT22;18679;45.190;5.722;2022-11-04T02:05:05;14.00;70.30
32173;DHT22;18679;45.190;5.722;2022-11-04T02:08:08;14.00;70.40
32173;DHT22;18679;45.190;5.722;2022-11-04T02:11:10;13.90;70.30
32173;DHT22;18679;45.190;5.722;2022-11-04T02:14:32;13.90;70.30
32173;DHT22;18679;45.190;5.722;2022-11-04T02:38:10;13.80;70.70
32173;DHT22;18679;45.190;5.722;2022-11-04T02:51:27;13.70;71.10
32173;DHT22;18679;45.190;5.722;2022-11-04T02:54:43;13.70;71.20
32173;DHT22;18679;45.190;5.722;2022-11-04T02:57:46;13.70;71.10
32173;DHT22;18679;45.190;5.722;2022-11-04T03:00:51;13.70;71.00
32173;DHT22;18679;45.190;5.722;2022-11-04T03:03:59;13.70;71.00
32173;DHT22;18679;45.190;5.722;2022-11-04T03:07:02;13.70;71.00
32173;DHT22;18679;45.190;5.722;2022-11-04T03:10:09;13.70;71.10
32173;DHT22;18679;45.190;5.722;2022-11-04T03:16:25;13.60;71.20
32173;DHT22;18679;45.190;5.722;2022-11-04T03:23:06;13.60;71.40
32173;DHT22;18679;45.190;5.722;2022-11-04T03:26:24;13.60;71.40
32173;DHT22;18679;45.190;5.722;2022-11-04T03:29:38;13.60;71.40
32173;DHT22;18679;45.190;5.722;2022-11-04T03:33:02;13.60;71.30
32173;DHT22;18679;45.190;5.722;2022-11-04T03:36:06;13.60;71.30
32173;DHT22;18679;45.190;5.722;2022-11-04T03:39:08;13.60;71.30
32173;DHT22;18679;45.190;5.722;2022-11-04T03:42:11;13.60;71.30
32173;DHT22;18679;45.190;5.722;2022-11-04T03:45:22;13.60;71.30
32173;DHT22;18679;45.190;5.722;2022-11-04T03:48:24;13.60;71.30
32173;DHT22;18679;45.190;5.722;2022-11-04T03:51:25;13.60;71.20
32173;DHT22;18679;45.190;5.722;2022-11-04T03:54:26;13.70;71.30
32173;DHT22;18679;45.190;5.722;2022-11-04T03:57:42;13.70;71.20
32173;DHT22;18679;45.190;5.722;2022-11-04T04:00:53;13.60;71.10
32173;DHT22;18679;45.190;5.722;2022-11-04T04:04:22;13.60;71.00
32173;DHT22;18679;45.190;5.722;2022-11-04T04:07:40;13.50;70.90
32173;DHT22;18679;45.190;5.722;2022-11-04T04:10:59;13.40;70.70
32173;DHT22;18679;45.190;5.722;2022-11-04T04:17:14;13.40;70.80
32173;DHT22;18679;45.190;5.722;2022-11-04T04:20:21;13.30;70.70
32173;DHT22;18679;45.190;5.722;2022-11-04T04:23:26;13.20;70.50
32173;DHT22;18679;45.190;5.722;2022-11-04T04:26:47;13.20;70.50
32173;DHT22;18679;45.190;5.722;2022-11-04T04:30:12;13.20;70.50
32173;DHT22;18679;45.190;5.722;2022-11-04T04:33:15;13.10;70.40
32173;DHT22;18679;45.190;5.722;2022-11-04T04:36:17;13.10;70.50
32173;DHT22;18679;45.190;5.722;2022-11-04T04:39:21;13.10;70.50
32173;DHT22;18679;45.190;5.722;2022-11-04T04:42:41;13.10;70.60
32173;DHT22;18679;45.190;5.722;2022-11-04T04:46:01;13.10;70.60
32173;DHT22;18679;45.190;5.722;2022-11-04T04:49:07;13.10;70.60
32173;DHT22;18679;45.190;5.722;2022-11-04T04:52:08;13.10;70.60
32173;DHT22;18679;45.190;5.722;2022-11-04T04:55:11;13.10;70.70
32173;DHT22;18679;45.190;5.722;2022-11-04T04:58:12;13.10;70.70
32173;DHT22;18679;45.190;5.722;2022-11-04T05:01:13;13.10;70.70
32173;DHT22;18679;45.190;5.722;2022-11-04T05:04:14;13.10;70.70
32173;DHT22;18679;45.190;5.722;2022-11-04T05:07:15;13.10;70.70
32173;DHT22;18679;45.190;5.722;2022-11-04T05:10:17;13.00;70.70
32173;DHT22;18679;45.190;5.722;2022-11-04T05:13:18;13.00;70.70
32173;DHT22;18679;45.190;5.722;2022-11-04T05:16:29;12.90;70.70
32173;DHT22;18679;45.190;5.722;2022-11-04T05:19:30;12.90;70.70
32173;DHT22;18679;45.190;5.722;2022-11-04T05:22:31;12.90;70.70
32173;DHT22;18679;45.190;5.722;2022-11-04T05:25:33;12.80;70.60
32173;DHT22;18679;45.190;5.722;2022-11-04T05:28:34;12.80;70.60
32173;DHT22;18679;45.190;5.722;2022-11-04T05:31:35;12.70;70.50
32173;DHT22;18679;45.190;5.722;2022-11-04T05:34:36;12.70;70.90
32173;DHT22;18679;45.190;5.722;2022-11-04T05:37:37;12.70;70.70
32173;DHT22;18679;45.190;5.722;2022-11-04T05:40:38;12.60;70.60
32173;DHT22;18679;45.190;5.722;2022-11-04T05:43:39;12.60;70.60
32173;DHT22;18679;45.190;5.722;2022-11-04T05:46:40;12.60;70.50
32173;DHT22;18679;45.190;5.722;2022-11-04T05:49:42;12.60;70.40
32173;DHT22;18679;45.190;5.722;2022-11-04T05:52:43;12.60;70.30
32173;DHT22;18679;45.190;5.722;2022-11-04T05:55:45;12.60;70.30
32173;DHT22;18679;45.190;5.722;2022-11-04T05:58:46;12.60;70.30
32173;DHT22;18679;45.190;5.722;2022-11-04T06:01:47;12.60;70.30
32173;DHT22;18679;45.190;5.722;2022-11-04T06:04:49;12.60;70.30
32173;DHT22;18679;45.190;5.722;2022-11-04T06:07:50;12.60;70.10
32173;DHT22;18679;45.190;5.722;2022-11-04T06:10:51;12.70;70.00
32173;DHT22;18679;45.190;5.722;2022-11-04T06:13:53;12.70;69.90
32173;DHT22;18679;45.190;5.722;2022-11-04T06:16:55;12.60;70.00
32173;DHT22;18679;45.190;5.722;2022-11-04T06:19:56;12.70;69.90
32173;DHT22;18679;45.190;5.722;2022-11-04T06:22:57;12.70;69.90
32173;DHT22;18679;45.190;5.722;2022-11-04T06:25:58;12.70;69.80
32173;DHT22;18679;45.190;5.722;2022-11-04T06:28:59;12.80;70.00
32173;DHT22;18679;45.190;5.722;2022-11-04T06:32:00;12.80;69.60
32173;DHT22;18679;45.190;5.722;2022-11-04T06:35:01;12.80;69.70
32173;DHT22;18679;45.190;5.722;2022-11-04T06:38:02;12.90;69.60
32173;DHT22;18679;45.190;5.722;2022-11-04T06:41:07;12.90;69.50
32173;DHT22;18679;45.190;5.722;2022-11-04T06:44:10;13.00;69.60
32173;DHT22;18679;45.190;5.722;2022-11-04T06:47:11;13.00;69.40
32173;DHT22;18679;45.190;5.722;2022-11-04T06:50:12;13.10;69.30
32173;DHT22;18679;45.190;5.722;2022-11-04T06:53:13;13.10;69.20
32173;DHT22;18679;45.190;5.722;2022-11-04T06:56:14;13.20;69.00
32173;DHT22;18679;45.190;5.722;2022-11-04T06:59:18;13.20;68.90
32173;DHT22;18679;45.190;5.722;2022-11-04T07:02:19;13.20;68.90
32173;DHT22;18679;45.190;5.722;2022-11-04T07:05:20;13.20;68.80
32173;DHT22;18679;45.190;5.722;2022-11-04T07:08:21;13.30;68.80
32173;DHT22;18679;45.190;5.722;2022-11-04T07:11:22;13.30;68.80
32173;DHT22;18679;45.190;5.722;2022-11-04T07:14:24;13.40;68.70
32173;DHT22;18679;45.190;5.722;2022-11-04T07:17:26;13.50;68.60
32173;DHT22;18679;45.190;5.722;2022-11-04T07:20:27;13.60;68.40
32173;DHT22;18679;45.190;5.722;2022-11-04T07:23:28;13.60;68.20
32173;DHT22;18679;45.190;5.722;2022-11-04T07:26:29;13.70;67.90
32173;DHT22;18679;45.190;5.722;2022-11-04T07:29:30;13.80;67.90
32173;DHT22;18679;45.190;5.722;2022-11-04T07:32:32;13.90;67.50
32173;DHT22;18679;45.190;5.722;2022-11-04T07:35:33;14.00;67.00
32173;DHT22;18679;45.190;5.722;2022-11-04T07:38:35;14.10;66.70
32173;DHT22;18679;45.190;5.722;2022-11-04T07:41:36;14.10;66.00
32173;DHT22;18679;45.190;5.722;2022-11-04T07:44:37;14.10;65.60
32173;DHT22;18679;45.190;5.722;2022-11-04T07:47:38;14.10;65.40
32173;DHT22;18679;45.190;5.722;2022-11-04T07:50:39;14.10;65.30
32173;DHT22;18679;45.190;5.722;2022-11-04T07:53:41;14.20;65.10
32173;DHT22;18679;45.190;5.722;2022-11-04T07:56:42;14.20;65.10
32173;DHT22;18679;45.190;5.722;2022-11-04T07:59:43;14.20;64.90
32173;DHT22;18679;45.190;5.722;2022-11-04T08:02:44;14.30;64.70
32173;DHT22;18679;45.190;5.722;2022-11-04T08:05:46;14.40;64.20
32173;DHT22;18679;45.190;5.722;2022-11-04T08:08:47;14.40;63.90
32173;DHT22;18679;45.190;5.722;2022-11-04T08:11:48;14.40;63.80
32173;DHT22;18679;45.190;5.722;2022-11-04T08:14:50;14.40;63.90
32173;DHT22;18679;45.190;5.722;2022-11-04T08:17:51;14.40;63.80
32173;DHT22;18679;45.190;5.722;2022-11-04T08:20:52;14.50;63.80
32173;DHT22;18679;45.190;5.722;2022-11-04T08:23:53;14.50;63.90
32173;DHT22;18679;45.190;5.722;2022-11-04T08:26:55;14.50;63.90
32173;DHT22;18679;45.190;5.722;2022-11-04T08:29:56;14.60;63.90
32173;DHT22;18679;45.190;5.722;2022-11-04T08:32:57;14.60;63.80
32173;DHT22;18679;45.190;5.722;2022-11-04T08:36:03;14.60;63.80
32173;DHT22;18679;45.190;5.722;2022-11-04T08:39:04;14.70;63.80
32173;DHT22;18679;45.190;5.722;2022-11-04T08:42:06;14.70;63.60
32173;DHT22;18679;45.190;5.722;2022-11-04T08:45:07;14.80;63.50
32173;DHT22;18679;45.190;5.722;2022-11-04T08:48:09;14.80;63.20
32173;DHT22;18679;45.190;5.722;2022-11-04T08:51:16;14.90;63.20
32173;DHT22;18679;45.190;5.722;2022-11-04T08:54:17;14.90;63.10
32173;DHT22;18679;45.190;5.722;2022-11-04T08:57:18;15.00;63.30
32173;DHT22;18679;45.190;5.722;2022-11-04T09:00:20;15.00;63.40
32173;DHT22;18679;45.190;5.722;2022-11-04T09:03:21;15.00;63.70
32173;DHT22;18679;45.190;5.722;2022-11-04T09:06:28;14.90;63.80
32173;DHT22;18679;45.190;5.722;2022-11-04T09:09:30;14.90;64.20
32173;DHT22;18679;45.190;5.722;2022-11-04T09:12:31;14.90;64.40
32173;DHT22;18679;45.190;5.722;2022-11-04T09:15:33;15.00;64.60
32173;DHT22;18679;45.190;5.722;2022-11-04T09:18:35;15.00;64.70
32173;DHT22;18679;45.190;5.722;2022-11-04T09:21:36;15.00;64.80
32173;DHT22;18679;45.190;5.722;2022-11-04T09:24:38;15.00;64.80
32173;DHT22;18679;45.190;5.722;2022-11-04T09:27:40;15.00;64.80
32173;DHT22;18679;45.190;5.722;2022-11-04T09:30:41;15.00;64.60
32173;DHT22;18679;45.190;5.722;2022-11-04T09:33:43;15.00;64.60
32173;DHT22;18679;45.190;5.722;2022-11-04T09:36:44;15.10;64.60
32173;DHT22;18679;45.190;5.722;2022-11-04T09:39:46;15.10;64.60
32173;DHT22;18679;45.190;5.722;2022-11-04T09:43:00;15.10;64.50
32173;DHT22;18679;45.190;5.722;2022-11-04T09:46:09;15.20;64.40
32173;DHT22;18679;45.190;5.722;2022-11-04T09:49:12;15.30;64.10
32173;DHT22;18679;45.190;5.722;2022-11-04T09:52:36;15.30;63.60
32173;DHT22;18679;45.190;5.722;2022-11-04T09:58:45;15.20;62.90
32173;DHT22;18679;45.190;5.722;2022-11-04T10:05:24;15.20;63.30
32173;DHT22;18679;45.190;5.722;2022-11-04T10:08:56;15.20;63.10
32173;DHT22;18679;45.190;5.722;2022-11-04T10:12:14;15.20;63.00
32173;DHT22;18679;45.190;5.722;2022-11-04T10:15:40;15.10;62.70
32173;DHT22;18679;45.190;5.722;2022-11-04T10:22:30;15.00;63.10
32173;DHT22;18679;45.190;5.722;2022-11-04T10:25:29;15.00;63.30
32173;DHT22;18679;45.190;5.722;2022-11-04T10:28:41;14.90;63.30
32173;DHT22;18679;45.190;5.722;2022-11-04T10:31:44;15.00;63.40
32173;DHT22;18679;45.190;5.722;2022-11-04T10:34:57;15.10;63.40
32173;DHT22;18679;45.190;5.722;2022-11-04T10:41:32;15.10;63.30
32173;DHT22;18679;45.190;5.722;2022-11-04T10:44:36;15.00;63.50
32173;DHT22;18679;45.190;5.722;2022-11-04T10:47:46;15.00;63.80
32173;DHT22;18679;45.190;5.722;2022-11-04T10:50:57;15.00;64.10
32173;DHT22;18679;45.190;5.722;2022-11-04T10:53:59;14.90;64.30
32173;DHT22;18679;45.190;5.722;2022-11-04T10:57:02;14.80;64.70
32173;DHT22;18679;45.190;5.722;2022-11-04T11:00:04;14.80;65.20
32173;DHT22;18679;45.190;5.722;2022-11-04T11:03:30;14.80;65.50
32173;DHT22;18679;45.190;5.722;2022-11-04T11:06:34;14.60;65.60
32173;DHT22;18679;45.190;5.722;2022-11-04T11:13:00;14.50;65.60
32173;DHT22;18679;45.190;5.722;2022-11-04T11:16:17;14.50;65.60
32173;DHT22;18679;45.190;5.722;2022-11-04T11:19:21;14.30;65.40
32173;DHT22;18679;45.190;5.722;2022-11-04T11:22:34;14.20;65.30
32173;DHT22;18679;45.190;5.722;2022-11-04T11:25:49;14.10;65.50
32173;DHT22;18679;45.190;5.722;2022-11-04T11:28:54;14.00;66.10
32173;DHT22;18679;45.190;5.722;2022-11-04T11:31:58;13.80;66.70
32173;DHT22;18679;45.190;5.722;2022-11-04T11:35:01;13.70;67.30
32173;DHT22;18679;45.190;5.722;2022-11-04T11:38:03;13.60;68.00
32173;DHT22;18679;45.190;5.722;2022-11-04T11:41:10;13.50;68.50
32173;DHT22;18679;45.190;5.722;2022-11-04T11:47:36;13.40;68.90
32173;DHT22;18679;45.190;5.722;2022-11-04T11:50:53;13.40;69.10
32173;DHT22;18679;45.190;5.722;2022-11-04T11:57:41;13.40;69.60
32173;DHT22;18679;45.190;5.722;2022-11-04T12:00:51;13.40;69.90
32173;DHT22;18679;45.190;5.722;2022-11-04T12:03:55;13.50;70.10
32173;DHT22;18679;45.190;5.722;2022-11-04T12:07:11;13.60;70.10
32173;DHT22;18679;45.190;5.722;2022-11-04T12:13:30;13.80;69.90
32173;DHT22;18679;45.190;5.722;2022-11-04T12:16:39;14.00;69.60
32173;DHT22;18679;45.190;5.722;2022-11-04T12:20:05;14.00;69.10
32173;DHT22;18679;45.190;5.722;2022-11-04T12:24:02;14.00;68.90
32173;DHT22;18679;45.190;5.722;2022-11-04T12:36:52;14.30;68.10
32173;DHT22;18679;45.190;5.722;2022-11-04T12:43:21;14.50;67.10
32173;DHT22;18679;45.190;5.722;2022-11-04T12:54:00;14.90;65.30
32173;DHT22;18679;45.190;5.722;2022-11-04T13:00:35;15.20;64.60
32173;DHT22;18679;45.190;5.722;2022-11-04T13:04:08;15.30;64.30
32173;DHT22;18679;45.190;5.722;2022-11-04T13:07:19;15.40;64.10
32173;DHT22;18679;45.190;5.722;2022-11-04T13:13:35;15.70;63.60
32173;DHT22;18679;45.190;5.722;2022-11-04T13:16:39;15.70;63.20
32173;DHT22;18679;45.190;5.722;2022-11-04T13:22:48;15.90;62.90
32173;DHT22;18679;45.190;5.722;2022-11-04T13:25:51;15.90;62.80
32173;DHT22;18679;45.190;5.722;2022-11-04T13:29:20;16.00;62.60
32173;DHT22;18679;45.190;5.722;2022-11-04T13:32:31;16.00;62.20
32173;DHT22;18679;45.190;5.722;2022-11-04T13:35:57;15.90;61.60
32173;DHT22;18679;45.190;5.722;2022-11-04T13:45:26;15.80;60.80
32173;DHT22;18679;45.190;5.722;2022-11-04T13:48:30;15.80;60.30
32173;DHT22;18679;45.190;5.722;2022-11-04T13:57:56;15.60;60.10
32173;DHT22;18679;45.190;5.722;2022-11-04T14:01:25;15.60;60.50
32173;DHT22;18679;45.190;5.722;2022-11-04T14:04:30;15.40;61.10
32173;DHT22;18679;45.190;5.722;2022-11-04T14:08:09;15.30;61.50
32173;DHT22;18679;45.190;5.722;2022-11-04T14:11:12;15.20;62.10
32173;DHT22;18679;45.190;5.722;2022-11-04T14:14:18;15.20;62.50
32173;DHT22;18679;45.190;5.722;2022-11-04T14:20:35;15.00;61.40
32173;DHT22;18679;45.190;5.722;2022-11-04T14:23:38;14.90;60.80
32173;DHT22;18679;45.190;5.722;2022-11-04T14:26:43;14.80;59.90
32173;DHT22;18679;45.190;5.722;2022-11-04T14:29:49;14.80;60.00
32173;DHT22;18679;45.190;5.722;2022-11-04T14:32:55;14.90;59.90
32173;DHT22;18679;45.190;5.722;2022-11-04T14:39:41;15.00;59.10
32173;DHT22;18679;45.190;5.722;2022-11-04T14:45:50;15.10;58.60
32173;DHT22;18679;45.190;5.722;2022-11-04T14:48:54;15.20;58.90
32173;DHT22;18679;45.190;5.722;2022-11-04T14:51:55;15.30;59.20
32173;DHT22;18679;45.190;5.722;2022-11-04T14:55:11;15.30;59.30
32173;DHT22;18679;45.190;5.722;2022-11-04T14:58:24;15.30;59.40
32173;DHT22;18679;45.190;5.722;2022-11-04T15:01:28;15.20;59.40
32173;DHT22;18679;45.190;5.722;2022-11-04T15:04:29;15.20;59.60
32173;DHT22;18679;45.190;5.722;2022-11-04T15:07:38;15.00;59.80
32173;DHT22;18679;45.190;5.722;2022-11-04T15:10:39;14.90;60.30
32173;DHT22;18679;45.190;5.722;2022-11-04T15:16:47;14.70;60.90
32173;DHT22;18679;45.190;5.722;2022-11-04T15:19:55;14.60;60.80
32173;DHT22;18679;45.190;5.722;2022-11-04T15:23:01;14.60;61.10
32173;DHT22;18679;45.190;5.722;2022-11-04T15:26:03;14.50;61.50
32173;DHT22;18679;45.190;5.722;2022-11-04T15:29:10;14.50;61.90
32173;DHT22;18679;45.190;5.722;2022-11-04T15:32:16;14.50;62.10
32173;DHT22;18679;45.190;5.722;2022-11-04T15:35:18;14.60;62.20
32173;DHT22;18679;45.190;5.722;2022-11-04T15:38:19;14.60;62.30
32173;DHT22;18679;45.190;5.722;2022-11-04T15:41:22;14.60;62.30
32173;DHT22;18679;45.190;5.722;2022-11-04T15:44:49;14.60;62.40
32173;DHT22;18679;45.190;5.722;2022-11-04T15:51:27;14.50;61.80
32173;DHT22;18679;45.190;5.722;2022-11-04T15:54:34;14.40;61.80
32173;DHT22;18679;45.190;5.722;2022-11-04T15:57:39;14.30;61.90
32173;DHT22;18679;45.190;5.722;2022-11-04T16:00:41;14.30;62.10
32173;DHT22;18679;45.190;5.722;2022-11-04T16:03:56;14.20;62.20
32173;DHT22;18679;45.190;5.722;2022-11-04T16:10:31;14.10;62.80
32173;DHT22;18679;45.190;5.722;2022-11-04T16:13:33;14.10;63.20
32173;DHT22;18679;45.190;5.722;2022-11-04T16:16:34;14.10;63.40
32173;DHT22;18679;45.190;5.722;2022-11-04T16:19:36;14.10;63.60
32173;DHT22;18679;45.190;5.722;2022-11-04T16:22:37;14.10;63.60
32173;DHT22;18679;45.190;5.722;2022-11-04T16:25:43;14.00;63.60
32173;DHT22;18679;45.190;5.722;2022-11-04T16:28:44;14.00;63.80
32173;DHT22;18679;45.190;5.722;2022-11-04T16:32:14;14.00;64.10
32173;DHT22;18679;45.190;5.722;2022-11-04T16:35:25;14.00;64.10
32173;DHT22;18679;45.190;5.722;2022-11-04T16:38:27;14.00;64.00
32173;DHT22;18679;45.190;5.722;2022-11-04T16:41:28;14.00;64.10
32173;DHT22;18679;45.190;5.722;2022-11-04T16:44:32;14.00;64.30
32173;DHT22;18679;45.190;5.722;2022-11-04T16:47:38;14.00;64.10
32173;DHT22;18679;45.190;5.722;2022-11-04T16:50:39;14.00;64.20
32173;DHT22;18679;45.190;5.722;2022-11-04T16:53:41;13.90;64.00
32173;DHT22;18679;45.190;5.722;2022-11-04T16:56:42;13.90;63.80
32173;DHT22;18679;45.190;5.722;2022-11-04T16:59:45;13.90;63.50
32173;DHT22;18679;45.190;5.722;2022-11-04T17:02:46;13.90;63.40
32173;DHT22;18679;45.190;5.722;2022-11-04T17:05:52;13.90;63.20
32173;DHT22;18679;45.190;5.722;2022-11-04T17:08:55;13.90;63.00
32173;DHT22;18679;45.190;5.722;2022-11-04T17:11:56;13.90;62.90
32173;DHT22;18679;45.190;5.722;2022-11-04T17:14:57;13.80;62.90
32173;DHT22;18679;45.190;5.722;2022-11-04T17:17:58;13.90;62.90
32173;DHT22;18679;45.190;5.722;2022-11-04T17:21:04;13.90;62.80
32173;DHT22;18679;45.190;5.722;2022-11-04T17:24:06;13.90;62.60
32173;DHT22;18679;45.190;5.722;2022-11-04T17:27:07;13.90;62.30
32173;DHT22;18679;45.190;5.722;2022-11-04T17:30:08;13.90;62.20
32173;DHT22;18679;45.190;5.722;2022-11-04T17:33:13;14.00;62.10
32173;DHT22;18679;45.190;5.722;2022-11-04T17:36:17;14.00;62.00
32173;DHT22;18679;45.190;5.722;2022-11-04T17:39:19;14.00;62.00
32173;DHT22;18679;45.190;5.722;2022-11-04T17:42:20;14.00;61.90
32173;DHT22;18679;45.190;5.722;2022-11-04T17:45:43;13.90;62.10
32173;DHT22;18679;45.190;5.722;2022-11-04T17:48:44;13.80;62.50
32173;DHT22;18679;45.190;5.722;2022-11-04T17:51:54;13.80;63.10
32173;DHT22;18679;45.190;5.722;2022-11-04T17:54:55;13.70;63.50
32173;DHT22;18679;45.190;5.722;2022-11-04T17:57:56;13.70;63.80
32173;DHT22;18679;45.190;5.722;2022-11-04T18:00:57;13.80;64.10
32173;DHT22;18679;45.190;5.722;2022-11-04T18:03:58;13.80;64.30
32173;DHT22;18679;45.190;5.722;2022-11-04T18:06:59;13.80;65.30
32173;DHT22;18679;45.190;5.722;2022-11-04T18:10:00;13.80;64.60
32173;DHT22;18679;45.190;5.722;2022-11-04T18:13:01;13.80;64.70
32173;DHT22;18679;45.190;5.722;2022-11-04T18:16:10;13.80;64.80
32173;DHT22;18679;45.190;5.722;2022-11-04T18:19:12;13.70;65.10
32173;DHT22;18679;45.190;5.722;2022-11-04T18:22:14;13.70;65.20
32173;DHT22;18679;45.190;5.722;2022-11-04T18:25:15;13.60;65.10
32173;DHT22;18679;45.190;5.722;2022-11-04T18:28:16;13.60;64.90
32173;DHT22;18679;45.190;5.722;2022-11-04T18:31:31;13.50;64.80
32173;DHT22;18679;45.190;5.722;2022-11-04T18:34:33;13.50;64.60
32173;DHT22;18679;45.190;5.722;2022-11-04T18:37:34;13.50;64.50
32173;DHT22;18679;45.190;5.722;2022-11-04T18:40:35;13.50;64.30
32173;DHT22;18679;45.190;5.722;2022-11-04T18:43:36;13.50;64.10
32173;DHT22;18679;45.190;5.722;2022-11-04T18:46:37;13.50;63.90
32173;DHT22;18679;45.190;5.722;2022-11-04T18:49:38;13.50;63.90
32173;DHT22;18679;45.190;5.722;2022-11-04T18:52:40;13.60;63.80
32173;DHT22;18679;45.190;5.722;2022-11-04T18:55:41;13.60;63.30
32173;DHT22;18679;45.190;5.722;2022-11-04T18:58:42;13.50;62.80
32173;DHT22;18679;45.190;5.722;2022-11-04T19:01:46;13.50;62.80
32173;DHT22;18679;45.190;5.722;2022-11-04T19:04:50;13.40;63.80
32173;DHT22;18679;45.190;5.722;2022-11-04T19:07:51;13.40;63.00
32173;DHT22;18679;45.190;5.722;2022-11-04T19:10:52;13.40;62.90
32173;DHT22;18679;45.190;5.722;2022-11-04T19:13:55;13.40;62.40
32173;DHT22;18679;45.190;5.722;2022-11-04T19:16:57;13.50;62.20
32173;DHT22;18679;45.190;5.722;2022-11-04T19:19:58;13.50;61.90
32173;DHT22;18679;45.190;5.722;2022-11-04T19:23:01;13.50;61.70
32173;DHT22;18679;45.190;5.722;2022-11-04T19:26:10;13.50;61.60
32173;DHT22;18679;45.190;5.722;2022-11-04T19:29:13;13.50;61.80
32173;DHT22;18679;45.190;5.722;2022-11-04T19:32:14;13.50;61.60
32173;DHT22;18679;45.190;5.722;2022-11-04T19:35:15;13.50;60.90
32173;DHT22;18679;45.190;5.722;2022-11-04T19:38:16;13.50;60.90
32173;DHT22;18679;45.190;5.722;2022-11-04T19:41:18;13.40;60.70
32173;DHT22;18679;45.190;5.722;2022-11-04T19:44:37;13.40;60.80
32173;DHT22;18679;45.190;5.722;2022-11-04T19:47:38;13.30;60.70
32173;DHT22;18679;45.190;5.722;2022-11-04T19:50:47;13.30;60.50
32173;DHT22;18679;45.190;5.722;2022-11-04T19:53:48;13.30;60.40
32173;DHT22;18679;45.190;5.722;2022-11-04T19:56:50;13.20;60.40
32173;DHT22;18679;45.190;5.722;2022-11-04T19:59:52;13.20;60.50
32173;DHT22;18679;45.190;5.722;2022-11-04T20:02:52;13.10;60.40
32173;DHT22;18679;45.190;5.722;2022-11-04T20:05:54;13.00;60.50
32173;DHT22;18679;45.190;5.722;2022-11-04T20:08:55;13.00;60.70
32173;DHT22;18679;45.190;5.722;2022-11-04T20:11:57;13.00;60.70
32173;DHT22;18679;45.190;5.722;2022-11-04T20:15:16;13.00;60.80
32173;DHT22;18679;45.190;5.722;2022-11-04T20:18:18;13.00;61.00
32173;DHT22;18679;45.190;5.722;2022-11-04T20:21:20;13.00;61.10
32173;DHT22;18679;45.190;5.722;2022-11-04T20:24:22;13.00;61.00
32173;DHT22;18679;45.190;5.722;2022-11-04T20:27:24;13.00;61.10
32173;DHT22;18679;45.190;5.722;2022-11-04T20:30:25;13.10;61.10
32173;DHT22;18679;45.190;5.722;2022-11-04T20:33:26;13.10;61.10
32173;DHT22;18679;45.190;5.722;2022-11-04T20:36:27;13.10;61.00
32173;DHT22;18679;45.190;5.722;2022-11-04T20:39:29;13.20;60.70
32173;DHT22;18679;45.190;5.722;2022-11-04T20:42:30;13.20;60.60
32173;DHT22;18679;45.190;5.722;2022-11-04T20:45:31;13.20;60.60
32173;DHT22;18679;45.190;5.722;2022-11-04T20:48:32;13.20;60.50
32173;DHT22;18679;45.190;5.722;2022-11-04T20:51:39;13.20;60.50
32173;DHT22;18679;45.190;5.722;2022-11-04T20:55:00;13.20;60.50
32173;DHT22;18679;45.190;5.722;2022-11-04T20:58:01;13.20;60.50
32173;DHT22;18679;45.190;5.722;2022-11-04T21:01:04;13.10;60.70
32173;DHT22;18679;45.190;5.722;2022-11-04T21:04:12;13.10;60.90
32173;DHT22;18679;45.190;5.722;2022-11-04T21:07:18;13.10;61.30
32173;DHT22;18679;45.190;5.722;2022-11-04T21:10:19;13.10;61.40
32173;DHT22;18679;45.190;5.722;2022-11-04T21:13:22;13.10;61.40
32173;DHT22;18679;45.190;5.722;2022-11-04T21:16:27;13.10;61.30
32173;DHT22;18679;45.190;5.722;2022-11-04T21:19:28;13.10;61.30
32173;DHT22;18679;45.190;5.722;2022-11-04T21:22:29;13.00;61.10
32173;DHT22;18679;45.190;5.722;2022-11-04T21:25:40;13.00;61.30
32173;DHT22;18679;45.190;5.722;2022-11-04T21:28:42;13.00;61.40
32173;DHT22;18679;45.190;5.722;2022-11-04T21:31:44;13.00;61.50
32173;DHT22;18679;45.190;5.722;2022-11-04T21:34:45;13.00;61.80
32173;DHT22;18679;45.190;5.722;2022-11-04T21:37:46;13.00;61.90
32173;DHT22;18679;45.190;5.722;2022-11-04T21:40:47;13.00;61.90
32173;DHT22;18679;45.190;5.722;2022-11-04T21:43:56;13.00;61.80